createdAt,value
2022-11-19T00:00:54.614Z,91.3
2022-11-19T00:02:04.742Z,91.3
2022-11-19T00:03:14.852Z,90.9
2022-11-19T00:04:24.973Z,91.5
2022-11-19T00:05:35.100Z,92.6
2022-11-19T00:06:45.224Z,93.7
2022-11-19T00:07:55.326Z,94.1
2022-11-19T00:09:04.462Z,93.6
2022-11-19T00:10:14.583Z,93.3
2022-11-19T00:11:24.702Z,92.6
2022-11-19T00:12:34.825Z,91.9
2022-11-19T00:13:44.937Z,91.6
2022-11-19T00:14:55.067Z,91.3
2022-11-19T00:16:05.178Z,91
2022-11-19T00:17:15.308Z,90.7
2022-11-19T00:18:25.418Z,91
2022-11-19T00:19:35.548Z,92
2022-11-19T00:20:45.648Z,92.8
2022-11-19T00:21:55.774Z,93.1
2022-11-19T00:23:05.894Z,93.2
2022-11-19T00:24:15.039Z,92.8
2022-11-19T00:25:25.145Z,92.1
2022-11-19T00:26:35.259Z,91.3
2022-11-19T00:27:45.387Z,90.9
2022-11-19T00:30:05.617Z,91.7
2022-11-19T00:31:15.737Z,92.7
2022-11-19T00:32:25.868Z,91.9
2022-11-19T00:33:35.976Z,90.9
2022-11-19T00:34:46.105Z,91.1
2022-11-19T00:35:56.222Z,92.1
2022-11-19T00:37:06.345Z,92.8
2022-11-19T00:38:16.453Z,93
2022-11-19T00:39:25.585Z,93.3
2022-11-19T00:40:35.713Z,92.7
2022-11-19T00:41:45.839Z,91.8
2022-11-19T00:42:55.956Z,91.2
2022-11-19T00:44:06.076Z,90.9
2022-11-19T00:45:16.188Z,91.9
2022-11-19T00:46:26.311Z,92.7
2022-11-19T00:47:36.000Z,93.1
2022-11-19T00:48:46.544Z,93
2022-11-19T00:49:56.664Z,92.3
2022-11-19T00:51:06.776Z,91.1
2022-11-19T00:52:16.897Z,90.4
2022-11-19T00:53:27.021Z,90.4
2022-11-19T00:54:36.162Z,90.5
2022-11-19T00:55:46.275Z,91
2022-11-19T00:56:56.395Z,92.1
2022-11-19T00:58:06.504Z,92.6
2022-11-19T00:59:16.631Z,92.5
2022-11-19T01:00:26.757Z,91.9
2022-11-19T01:01:36.865Z,91.8
2022-11-19T01:02:46.992Z,91.8
2022-11-19T01:03:57.098Z,92.4
2022-11-19T01:05:07.217Z,92.6
2022-11-19T01:06:17.354Z,92.3
2022-11-19T01:07:27.461Z,91.8
2022-11-19T01:08:37.584Z,91.7
2022-11-19T01:09:46.717Z,91.7
2022-11-19T01:10:56.844Z,91.2
2022-11-19T01:12:06.946Z,91.1
2022-11-19T01:13:17.071Z,91.1
2022-11-19T01:14:27.200Z,91.9
2022-11-19T01:15:37.309Z,92.6
2022-11-19T01:16:47.000Z,92.9
2022-11-19T01:17:57.542Z,92.6
2022-11-19T01:19:07.666Z,92.3
2022-11-19T01:20:17.778Z,92.1
2022-11-19T01:21:27.909Z,92.1
2022-11-19T01:22:38.024Z,92.3
2022-11-19T01:23:48.152Z,92
2022-11-19T01:24:57.285Z,91.7
2022-11-19T01:26:07.390Z,92.1
2022-11-19T01:27:17.527Z,92.4
2022-11-19T01:28:27.631Z,92.7
2022-11-19T01:29:37.758Z,92
2022-11-19T01:30:47.883Z,91.3
2022-11-19T01:31:57.992Z,91.5
2022-11-19T01:33:08.122Z,91.8
2022-11-19T01:34:18.239Z,91.9
2022-11-19T01:35:28.348Z,91.7
2022-11-19T01:36:38.477Z,91.6
2022-11-19T01:37:48.587Z,92.3
2022-11-19T01:38:58.710Z,92.8
2022-11-19T01:40:07.850Z,92.8
2022-11-19T01:41:17.955Z,92.4
2022-11-19T01:42:28.079Z,92.1
2022-11-19T01:43:38.209Z,91.9
2022-11-19T01:44:48.319Z,91.9
2022-11-19T01:45:58.436Z,92.1
2022-11-19T01:47:08.565Z,92.6
2022-11-19T01:48:18.676Z,93
2022-11-19T01:49:28.796Z,92.8
2022-11-19T01:50:38.921Z,93.1
2022-11-19T01:51:49.026Z,93.6
2022-11-19T01:52:59.144Z,93.9
2022-11-19T01:54:09.273Z,94.2
2022-11-19T01:55:18.409Z,94.4
2022-11-19T01:56:28.517Z,94.4
2022-11-19T01:57:37.674Z,94.6
2022-11-19T01:58:47.777Z,94.7
2022-11-19T01:59:57.902Z,94.7
2022-11-19T02:01:08.031Z,94.7
2022-11-19T02:02:18.135Z,94.3
2022-11-19T02:03:28.256Z,94.1
2022-11-19T02:04:38.387Z,93.9
2022-11-19T02:05:48.497Z,94
2022-11-19T02:06:58.616Z,94.1
2022-11-19T02:08:08.741Z,94.3
2022-11-19T02:09:18.865Z,94.3
2022-11-19T02:10:28.969Z,94.4
2022-11-19T02:11:39.090Z,94.3
2022-11-19T02:12:48.230Z,94.5
2022-11-19T02:13:58.356Z,94.6
2022-11-19T02:15:08.463Z,94.5
2022-11-19T02:16:18.589Z,94.5
2022-11-19T02:17:28.700Z,94.5
2022-11-19T02:18:38.824Z,94.4
2022-11-19T02:19:48.951Z,94.3
2022-11-19T02:20:59.056Z,94.3
2022-11-19T02:22:09.178Z,94.3
2022-11-19T02:23:19.304Z,94.1
2022-11-19T02:24:29.427Z,94
2022-11-19T02:25:39.528Z,94
2022-11-19T02:26:49.651Z,93.9
2022-11-19T02:27:59.896Z,93.7
2022-11-19T02:29:10.012Z,93.8
2022-11-19T02:31:30.243Z,94
2022-11-19T02:32:40.381Z,93.9
2022-11-19T02:33:50.484Z,93.9
2022-11-19T02:35:00.602Z,93.9
2022-11-19T02:36:10.725Z,94.1
2022-11-19T02:37:20.849Z,94
2022-11-19T02:38:30.957Z,94.4
2022-11-19T02:39:41.076Z,94.8
2022-11-19T02:40:51.195Z,94.8
2022-11-19T02:42:01.317Z,94.8
2022-11-19T02:43:10.457Z,94.8
2022-11-19T02:44:20.573Z,94.8
2022-11-19T02:45:30.701Z,94.5
2022-11-19T02:46:40.822Z,94.2
2022-11-19T02:47:50.931Z,94.3
2022-11-19T02:49:01.050Z,94.3
2022-11-19T02:50:11.168Z,94.2
2022-11-19T02:51:21.293Z,94.1
2022-11-19T02:52:31.400Z,94.3
2022-11-19T02:53:41.527Z,94.3
2022-11-19T02:54:51.644Z,94.3
2022-11-19T02:56:01.772Z,94.6
2022-11-19T02:57:11.882Z,94.8
2022-11-19T02:58:21.014Z,94.5
2022-11-19T02:59:31.129Z,94.3
2022-11-19T03:00:41.248Z,94.1
2022-11-19T03:01:51.383Z,93.9
2022-11-19T03:03:01.488Z,93.7
2022-11-19T03:04:11.611Z,93.7
2022-11-19T03:05:21.736Z,94
2022-11-19T03:06:31.861Z,94.3
2022-11-19T03:07:41.964Z,94.7
2022-11-19T03:08:52.093Z,94.8
2022-11-19T03:10:02.202Z,94.8
2022-11-19T03:11:12.323Z,95.2
2022-11-19T03:12:22.451Z,95.1
2022-11-19T03:13:31.571Z,94.8
2022-11-19T03:14:41.698Z,94.3
2022-11-19T03:15:51.809Z,93.9
2022-11-19T03:17:01.940Z,93.6
2022-11-19T03:18:12.058Z,93.4
2022-11-19T03:19:22.170Z,93.7
2022-11-19T03:20:32.296Z,94
2022-11-19T03:21:42.416Z,94.2
2022-11-19T03:22:52.540Z,94.1
2022-11-19T03:24:02.650Z,93.9
2022-11-19T03:25:12.776Z,93.7
2022-11-19T03:26:22.889Z,93.6
2022-11-19T03:27:32.998Z,93.5
2022-11-19T03:28:42.139Z,93.8
2022-11-19T03:29:52.261Z,94.3
2022-11-19T03:31:02.370Z,94.8
2022-11-19T03:32:12.491Z,94.9
2022-11-19T03:33:22.615Z,94.6
2022-11-19T03:34:32.727Z,94.2
2022-11-19T03:35:42.855Z,93.9
2022-11-19T03:36:52.968Z,93.5
2022-11-19T03:38:03.099Z,93.7
2022-11-19T03:39:13.203Z,94.4
2022-11-19T03:40:23.333Z,94.5
2022-11-19T03:41:33.455Z,94.6
2022-11-19T03:42:43.566Z,94.4
2022-11-19T03:43:52.694Z,94.2
2022-11-19T03:45:02.818Z,94.5
2022-11-19T03:46:12.943Z,95
2022-11-19T03:47:23.050Z,95.3
2022-11-19T03:48:33.173Z,95.5
2022-11-19T03:49:43.302Z,95.8
2022-11-19T03:50:53.411Z,95.8
2022-11-19T03:52:03.531Z,95.5
2022-11-19T03:53:13.660Z,96
2022-11-19T03:54:23.773Z,96.7
2022-11-19T03:55:33.892Z,97.1
2022-11-19T03:56:44.017Z,97.7
2022-11-19T03:57:54.120Z,98.2
2022-11-19T03:59:03.254Z,97.8
2022-11-19T04:00:13.379Z,97.4
2022-11-19T04:01:23.503Z,96.7
2022-11-19T04:02:33.608Z,96.3
2022-11-19T04:03:43.737Z,96
2022-11-19T04:04:53.865Z,95.7
2022-11-19T04:06:03.973Z,95.3
2022-11-19T04:07:14.097Z,95.9
2022-11-19T04:08:24.212Z,95.9
2022-11-19T04:09:34.324Z,95.8
2022-11-19T04:10:44.450Z,95.5
2022-11-19T04:13:04.682Z,95
2022-11-19T04:14:13.831Z,95.8
2022-11-19T04:15:23.936Z,96.5
2022-11-19T04:16:34.067Z,96.6
2022-11-19T04:17:44.178Z,96.7
2022-11-19T04:18:54.299Z,96.5
2022-11-19T04:20:04.419Z,96.2
2022-11-19T04:21:14.542Z,96.2
2022-11-19T04:22:24.651Z,96.2
2022-11-19T04:23:34.779Z,96.3
2022-11-19T04:24:44.885Z,96.4
2022-11-19T04:25:55.013Z,97.3
2022-11-19T04:27:05.141Z,97.8
2022-11-19T04:28:15.249Z,97.5
2022-11-19T04:29:25.491Z,97.4
2022-11-19T04:30:35.616Z,96.8
2022-11-19T04:31:45.738Z,96.3
2022-11-19T04:32:55.846Z,96.1
2022-11-19T04:34:05.972Z,96
2022-11-19T04:35:16.082Z,96
2022-11-19T04:36:26.202Z,96.3
2022-11-19T04:37:36.330Z,96.3
2022-11-19T04:38:46.433Z,96.3
2022-11-19T04:39:56.560Z,96.3
2022-11-19T04:41:06.682Z,96.2
2022-11-19T04:42:16.789Z,95.8
2022-11-19T04:43:26.918Z,95.6
2022-11-19T04:44:36.058Z,95.7
2022-11-19T04:45:46.168Z,96.6
2022-11-19T04:46:56.289Z,97
2022-11-19T04:48:06.402Z,96.8
2022-11-19T04:49:16.522Z,96.8
2022-11-19T04:50:26.648Z,96.7
2022-11-19T04:51:36.771Z,96
2022-11-19T04:52:46.877Z,95.9
2022-11-19T04:53:57.010Z,95.4
2022-11-19T04:55:07.117Z,96.2
2022-11-19T04:56:17.240Z,96.6
2022-11-19T04:57:27.363Z,97
2022-11-19T04:58:37.475Z,97
2022-11-19T04:59:47.717Z,96.7
2022-11-19T05:00:57.847Z,96.2
2022-11-19T05:02:07.952Z,95.8
2022-11-19T05:03:18.077Z,95.3
2022-11-19T05:04:28.194Z,94.9
2022-11-19T05:05:38.317Z,95
2022-11-19T05:06:48.434Z,94.7
2022-11-19T05:07:58.543Z,95.4
2022-11-19T05:09:08.667Z,95.5
2022-11-19T05:10:18.797Z,95.3
2022-11-19T05:11:28.914Z,95.3
2022-11-19T05:12:39.034Z,95
2022-11-19T05:13:49.138Z,94.8
2022-11-19T05:14:58.287Z,94.7
2022-11-19T05:16:08.396Z,94.6
2022-11-19T05:17:18.524Z,95.5
2022-11-19T05:18:28.632Z,95.7
2022-11-19T05:19:38.757Z,95.8
2022-11-19T05:20:48.879Z,95.6
2022-11-19T05:21:59.003Z,95.5
2022-11-19T05:23:09.110Z,95.2
2022-11-19T05:24:19.239Z,94.8
2022-11-19T05:25:29.355Z,94.7
2022-11-19T05:26:39.472Z,94.8
2022-11-19T05:27:49.596Z,95.2
2022-11-19T05:28:59.717Z,95.3
2022-11-19T05:30:08.833Z,95.1
2022-11-19T05:31:18.955Z,94.8
2022-11-19T05:32:29.082Z,95.1
2022-11-19T05:33:39.205Z,95.8
2022-11-19T05:34:49.310Z,95.7
2022-11-19T05:35:59.434Z,95.1
2022-11-19T05:37:09.558Z,95.5
2022-11-19T05:38:19.671Z,95.5
2022-11-19T05:39:29.792Z,95.5
2022-11-19T05:40:39.918Z,95.5
2022-11-19T05:41:50.025Z,95.5
2022-11-19T05:43:00.143Z,96.1
2022-11-19T05:44:10.268Z,96.2
2022-11-19T05:45:19.410Z,96.2
2022-11-19T05:46:29.513Z,96.2
2022-11-19T05:47:39.639Z,95.9
2022-11-19T05:48:49.768Z,95.8
2022-11-19T05:49:59.870Z,95.6
2022-11-19T05:51:09.996Z,95.8
2022-11-19T05:52:19.133Z,95.7
2022-11-19T05:53:29.264Z,95.9
2022-11-19T05:54:39.386Z,96
2022-11-19T05:55:49.495Z,96.1
2022-11-19T05:56:59.606Z,96.2
2022-11-19T05:58:09.733Z,96.1
2022-11-19T05:59:19.856Z,96
2022-11-19T06:00:29.977Z,95.8
2022-11-19T06:01:40.084Z,95.6
2022-11-19T06:02:50.200Z,95.6
2022-11-19T06:04:00.320Z,95.5
2022-11-19T06:05:10.447Z,95.7
2022-11-19T06:06:20.560Z,96
2022-11-19T06:07:29.698Z,95.9
2022-11-19T06:08:39.823Z,95.7
2022-11-19T06:09:49.947Z,96
2022-11-19T06:11:00.057Z,96.5
2022-11-19T06:12:10.185Z,96.5
2022-11-19T06:13:20.305Z,96.5
2022-11-19T06:14:30.421Z,96.2
2022-11-19T06:15:40.541Z,95.8
2022-11-19T06:16:50.646Z,95.6
2022-11-19T06:18:00.776Z,95.7
2022-11-19T06:19:10.881Z,95.6
2022-11-19T06:20:21.002Z,95.6
2022-11-19T06:21:31.124Z,95.6
2022-11-19T06:22:40.273Z,96
2022-11-19T06:23:50.387Z,96.2
2022-11-19T06:25:00.507Z,96.1
2022-11-19T06:26:10.617Z,96
2022-11-19T06:27:20.746Z,96
2022-11-19T06:28:30.867Z,95.9
2022-11-19T06:29:40.970Z,95.9
2022-11-19T06:30:51.096Z,96.1
2022-11-19T06:32:01.218Z,96.3
2022-11-19T06:33:11.343Z,96.2
2022-11-19T06:34:21.450Z,96.1
2022-11-19T06:35:31.571Z,96.1
2022-11-19T06:36:41.684Z,96.2
2022-11-19T06:37:50.819Z,97.1
2022-11-19T06:39:00.944Z,97.3
2022-11-19T06:40:11.067Z,97.7
2022-11-19T06:41:21.190Z,97.8
2022-11-19T06:43:41.425Z,97.9
2022-11-19T06:44:51.539Z,97.7
2022-11-19T06:46:01.662Z,97.5
2022-11-19T06:47:11.774Z,97.3
2022-11-19T06:48:21.899Z,97
2022-11-19T06:49:32.017Z,97.3
2022-11-19T06:50:42.127Z,97.4
2022-11-19T06:51:52.258Z,97.3
2022-11-19T06:53:01.387Z,97.3
2022-11-19T06:54:11.000Z,97.5
2022-11-19T06:55:21.629Z,97.6
2022-11-19T06:56:31.750Z,97.3
2022-11-19T06:57:41.870Z,97.3
2022-11-19T06:58:51.982Z,97.1
2022-11-19T07:00:02.105Z,97.3
2022-11-19T07:01:12.213Z,97.4
2022-11-19T07:02:22.338Z,97.2
2022-11-19T07:03:32.460Z,97.1
2022-11-19T07:04:42.581Z,97.2
2022-11-19T07:05:52.688Z,97.1
2022-11-19T07:07:02.817Z,97.6
2022-11-19T07:08:11.944Z,98.2
2022-11-19T07:09:22.070Z,98.4
2022-11-19T07:10:32.189Z,98.4
2022-11-19T07:11:42.300Z,98.4
2022-11-19T07:12:52.427Z,98.2
2022-11-19T07:14:02.553Z,98
2022-11-19T07:15:12.660Z,98.5
2022-11-19T07:16:22.786Z,99
2022-11-19T07:17:32.900Z,99
2022-11-19T07:18:43.026Z,98.9
2022-11-19T07:19:53.147Z,98.3
2022-11-19T07:21:03.247Z,98.2
2022-11-19T07:22:13.376Z,98.7
2022-11-19T07:23:22.511Z,98.5
2022-11-19T07:25:42.741Z,97.3
2022-11-19T07:26:52.866Z,96.5
2022-11-19T07:28:02.984Z,95.8
2022-11-19T07:29:13.105Z,95.3
2022-11-19T07:30:23.226Z,95.7
2022-11-19T07:31:33.351Z,96
2022-11-19T07:32:43.453Z,96
2022-11-19T07:33:53.574Z,95.5
2022-11-19T07:35:03.692Z,95.9
2022-11-19T07:36:13.823Z,96.2
2022-11-19T07:37:23.926Z,95.8
2022-11-19T07:38:33.078Z,95.9
2022-11-19T07:39:43.178Z,95.2
2022-11-19T07:40:53.299Z,95.5
2022-11-19T07:42:03.419Z,95.7
2022-11-19T07:43:13.546Z,95.5
2022-11-19T07:44:23.655Z,95.5
2022-11-19T07:45:33.775Z,95.3
2022-11-19T07:46:43.903Z,95.3
2022-11-19T07:47:54.027Z,95.3
2022-11-19T07:49:04.132Z,95.2
2022-11-19T07:50:14.248Z,95.1
2022-11-19T07:51:24.377Z,94.9
2022-11-19T07:52:34.484Z,94.8
2022-11-19T07:53:43.619Z,94.8
2022-11-19T07:54:53.742Z,94.6
2022-11-19T07:56:03.859Z,94.7
2022-11-19T07:57:13.981Z,94.2
2022-11-19T07:58:24.094Z,94.2
2022-11-19T07:59:34.221Z,94.3
2022-11-19T08:00:44.333Z,94.4
2022-11-19T08:01:54.445Z,94.4
2022-11-19T08:03:04.577Z,94.4
2022-11-19T08:04:14.684Z,94.5
2022-11-19T08:05:24.809Z,94.3
2022-11-19T08:06:34.928Z,94.2
2022-11-19T08:07:45.041Z,94.1
2022-11-19T08:08:54.183Z,93.8
2022-11-19T08:10:04.285Z,94.1
2022-11-19T08:11:14.409Z,93.8
2022-11-19T08:12:24.533Z,94
2022-11-19T08:13:34.657Z,93.8
2022-11-19T08:15:54.875Z,94
2022-11-19T08:17:04.995Z,93.8
2022-11-19T08:18:15.121Z,93.7
2022-11-19T08:19:25.247Z,93.4
2022-11-19T08:21:45.473Z,93.3
2022-11-19T08:22:55.594Z,93.2
2022-11-19T08:24:04.734Z,92.8
2022-11-19T08:25:14.839Z,92.8
2022-11-19T08:26:24.962Z,93
2022-11-19T08:28:45.192Z,92.8
2022-11-19T08:29:54.345Z,92.4
2022-11-19T08:31:03.476Z,92.5
2022-11-19T08:32:13.606Z,92.3
2022-11-19T08:33:23.725Z,92.4
2022-11-19T08:34:33.828Z,92.4
2022-11-19T08:35:43.944Z,92.6
2022-11-19T08:36:54.066Z,92.4
2022-11-19T08:38:04.187Z,92.1
2022-11-19T08:39:14.307Z,91.9
2022-11-19T08:40:24.432Z,91.7
2022-11-19T08:41:34.551Z,91.5
2022-11-19T08:42:43.683Z,91.8
2022-11-19T08:43:52.818Z,91.4
2022-11-19T08:45:02.937Z,91.4
2022-11-19T08:46:13.055Z,91.4
2022-11-19T08:47:23.181Z,91.2
2022-11-19T08:48:33.290Z,91.4
2022-11-19T08:49:43.415Z,90.5
2022-11-19T08:50:53.522Z,91
2022-11-19T08:52:03.650Z,91.1
2022-11-19T08:53:13.770Z,91
2022-11-19T08:54:23.891Z,91.1
2022-11-19T08:55:33.994Z,91
2022-11-19T08:56:44.120Z,91.4
2022-11-19T08:57:54.245Z,91.1
2022-11-19T08:59:03.377Z,91.2
2022-11-19T09:00:13.501Z,91.2
2022-11-19T09:01:23.605Z,91
2022-11-19T09:02:33.736Z,91.1
2022-11-19T09:03:43.838Z,91.1
2022-11-19T09:04:53.962Z,91.3
2022-11-19T09:06:04.090Z,91.2
2022-11-19T09:07:14.196Z,91.2
2022-11-19T09:08:24.319Z,91.2
2022-11-19T09:09:34.439Z,91.4
2022-11-19T09:10:44.562Z,91.2
2022-11-19T09:11:54.663Z,91
2022-11-19T09:13:04.787Z,91
2022-11-19T09:14:13.917Z,91
2022-11-19T09:15:24.041Z,90.8
2022-11-19T09:16:34.000Z,91
2022-11-19T09:17:44.271Z,90.9
2022-11-19T09:18:54.396Z,90.1
2022-11-19T09:20:04.520Z,90.4
2022-11-19T09:25:55.074Z,89
2022-11-19T09:27:04.228Z,88.8
2022-11-19T09:28:14.467Z,88.7
2022-11-19T09:29:24.584Z,88.6
2022-11-19T09:30:34.696Z,88.3
2022-11-19T09:31:44.826Z,87.8
2022-11-19T09:32:54.945Z,88
2022-11-19T09:34:05.057Z,88.2
2022-11-19T09:35:15.163Z,88.2
2022-11-19T09:36:25.286Z,87.4
2022-11-19T09:38:45.525Z,87.8
2022-11-19T09:39:55.652Z,87.2
2022-11-19T09:41:05.756Z,87.3
2022-11-19T09:42:15.884Z,87.3
2022-11-19T09:43:25.021Z,87
2022-11-19T09:44:35.127Z,86.6
2022-11-19T09:45:45.257Z,86.8
2022-11-19T09:46:55.496Z,86.6
2022-11-19T09:48:05.625Z,86.6
2022-11-19T09:49:15.725Z,86.5
2022-11-19T09:50:25.848Z,86.6
2022-11-19T09:51:35.969Z,86.8
2022-11-19T09:52:46.242Z,86.9
2022-11-19T09:53:56.466Z,87.1
2022-11-19T09:55:06.588Z,86.4
2022-11-19T09:56:16.849Z,87
2022-11-19T09:57:27.090Z,86.2
2022-11-19T09:59:47.324Z,87.2
2022-11-19T10:00:57.447Z,86.7
2022-11-19T10:02:07.571Z,86.6
2022-11-19T10:03:17.688Z,87.2
2022-11-19T10:04:27.798Z,87
2022-11-19T10:05:37.924Z,87
2022-11-19T10:06:48.044Z,86.8
2022-11-19T10:07:58.159Z,87
2022-11-19T10:09:08.279Z,87
2022-11-19T10:10:18.401Z,87.1
2022-11-19T10:11:28.513Z,87
2022-11-19T10:12:37.642Z,86.9
2022-11-19T10:13:47.772Z,86.9
2022-11-19T10:14:57.880Z,86.8
2022-11-19T10:16:07.999Z,86.5
2022-11-19T10:17:18.125Z,86.8
2022-11-19T10:18:28.230Z,86.5
2022-11-19T10:19:38.363Z,86.1
2022-11-19T10:20:48.465Z,86.2
2022-11-19T10:21:58.586Z,86.3
2022-11-19T10:23:08.709Z,86.7
2022-11-19T10:24:18.822Z,86.7
2022-11-19T10:25:28.944Z,86.9
2022-11-19T10:26:39.073Z,86.9
2022-11-19T10:27:48.191Z,87
2022-11-19T10:28:58.318Z,87
2022-11-19T10:30:08.434Z,87.5
2022-11-19T10:31:18.559Z,87.1
2022-11-19T10:32:28.670Z,87.3
2022-11-19T10:33:38.789Z,87.1
2022-11-19T10:34:48.897Z,87.1
2022-11-19T10:35:59.018Z,86.7
2022-11-19T10:37:09.142Z,87.2
2022-11-19T10:38:19.269Z,87.6
2022-11-19T10:39:29.378Z,87.2
2022-11-19T10:40:39.494Z,87
2022-11-19T10:41:49.623Z,86.9
2022-11-19T10:42:58.747Z,87
2022-11-19T10:44:08.869Z,87.2
2022-11-19T10:45:18.979Z,87
2022-11-19T10:46:29.108Z,86.4
2022-11-19T10:47:39.230Z,86.7
2022-11-19T10:48:49.336Z,86.5
2022-11-19T10:49:59.462Z,86.2
2022-11-19T10:51:09.566Z,86.7
2022-11-19T10:52:19.691Z,86.6
2022-11-19T10:53:29.820Z,87.2
2022-11-19T10:54:38.958Z,87.4
2022-11-19T10:55:48.087Z,86.9
2022-11-19T10:56:58.358Z,86.3
2022-11-19T10:58:08.589Z,86.5
2022-11-19T10:59:18.706Z,86.5
2022-11-19T11:00:28.825Z,86.3
2022-11-19T11:01:38.957Z,86.5
2022-11-19T11:02:49.067Z,86.5
2022-11-19T11:03:59.188Z,86.6
2022-11-19T11:05:09.310Z,87.4
2022-11-19T11:06:19.419Z,87.2
2022-11-19T11:07:29.532Z,87.7
2022-11-19T11:08:39.663Z,88.2
2022-11-19T11:09:49.783Z,87.9
2022-11-19T11:10:59.889Z,87.9
2022-11-19T11:12:10.017Z,87.9
2022-11-19T11:13:19.148Z,87.6
2022-11-19T11:14:29.255Z,87
2022-11-19T11:15:39.378Z,87.7
2022-11-19T11:16:49.495Z,87.7
2022-11-19T11:17:59.617Z,88
2022-11-19T11:19:09.743Z,87.9
2022-11-19T11:20:19.846Z,87.6
2022-11-19T11:21:29.966Z,87.7
2022-11-19T11:22:40.083Z,88.1
2022-11-19T11:23:50.214Z,88.4
2022-11-19T11:25:00.323Z,87.8
2022-11-19T11:26:10.449Z,87.9
2022-11-19T11:27:20.562Z,88.2
2022-11-19T11:28:29.707Z,88.5
2022-11-19T11:29:39.810Z,88
2022-11-19T11:30:49.929Z,88.1
2022-11-19T11:32:00.053Z,87.7
2022-11-19T11:33:10.179Z,87.9
2022-11-19T11:34:20.286Z,88.6
2022-11-19T11:35:30.412Z,88.4
2022-11-19T11:36:39.543Z,88.1
2022-11-19T11:37:48.683Z,88.1
2022-11-19T11:38:58.799Z,88
2022-11-19T11:40:08.926Z,87.9
2022-11-19T11:41:18.062Z,87.9
2022-11-19T11:42:27.198Z,88.5
2022-11-19T11:43:37.320Z,88.6
2022-11-19T11:44:47.441Z,88.6
2022-11-19T11:45:57.554Z,88.9
2022-11-19T11:47:07.676Z,88
2022-11-19T11:48:17.785Z,88.6
2022-11-19T11:49:27.912Z,88.6
2022-11-19T11:50:38.033Z,88.3
2022-11-19T11:51:48.145Z,88.5
2022-11-19T11:52:58.256Z,88.1
2022-11-19T11:54:08.388Z,88.7
2022-11-19T11:55:18.497Z,88.6
2022-11-19T11:56:28.614Z,88.7
2022-11-19T11:57:38.861Z,88.4
2022-11-19T11:58:48.982Z,88.2
2022-11-19T11:59:59.091Z,88.3
2022-11-19T12:01:09.214Z,88.3
2022-11-19T12:02:19.320Z,88.2
2022-11-19T12:03:29.447Z,87.9
2022-11-19T12:04:39.557Z,88.6
2022-11-19T12:05:48.705Z,88.5
2022-11-19T12:06:58.950Z,87.9
2022-11-19T12:08:09.061Z,88.4
2022-11-19T12:09:19.184Z,88.7
2022-11-19T12:10:28.336Z,88.5
2022-11-19T12:11:37.470Z,88.3
2022-11-19T12:12:47.581Z,88.3
2022-11-19T12:13:57.704Z,89
2022-11-19T12:15:07.811Z,89
2022-11-19T12:16:17.940Z,89.5
2022-11-19T12:17:28.043Z,89.2
2022-11-19T12:18:38.169Z,88.9
2022-11-19T12:19:48.292Z,89.1
2022-11-19T12:20:58.411Z,88.6
2022-11-19T12:22:08.520Z,88.5
2022-11-19T12:23:18.636Z,88.9
2022-11-19T12:24:28.768Z,88.9
2022-11-19T12:25:38.887Z,89
2022-11-19T12:26:49.113Z,89.2
2022-11-19T12:27:59.242Z,89
2022-11-19T12:29:09.355Z,88.9
2022-11-19T12:30:19.475Z,89.5
2022-11-19T12:31:29.582Z,89.2
2022-11-19T12:32:39.718Z,88.7
2022-11-19T12:33:49.823Z,88.5
2022-11-19T12:34:58.974Z,89.8
2022-11-19T12:36:08.116Z,89.6
2022-11-19T12:37:18.366Z,89.8
2022-11-19T12:38:27.508Z,89.8
2022-11-19T12:39:37.632Z,89
2022-11-19T12:40:47.750Z,88.8
2022-11-19T12:41:57.870Z,88.8
2022-11-19T12:43:07.979Z,89.1
2022-11-19T12:44:18.107Z,89.2
2022-11-19T12:45:28.207Z,88.9
2022-11-19T12:47:48.462Z,88
2022-11-19T12:48:58.573Z,88.2
2022-11-19T12:50:08.697Z,88
2022-11-19T12:51:18.799Z,87.1
2022-11-19T12:52:28.915Z,86.5
2022-11-19T12:53:38.059Z,86.4
2022-11-19T12:54:48.181Z,87.2
2022-11-19T12:55:58.287Z,87
2022-11-19T12:57:08.416Z,86
2022-11-19T12:58:18.536Z,86.7
2022-11-19T12:59:28.642Z,85.9
2022-11-19T13:00:38.760Z,85
2022-11-19T13:01:48.894Z,84.8
2022-11-19T13:02:58.025Z,84.4
2022-11-19T13:04:07.161Z,85
2022-11-19T13:05:16.314Z,83.6
2022-11-19T13:06:26.541Z,84.1
2022-11-19T13:07:36.666Z,84.2
2022-11-19T13:08:46.775Z,83.3
2022-11-19T13:09:56.906Z,83.7
2022-11-19T13:11:07.021Z,84
2022-11-19T13:12:17.144Z,82.7
2022-11-19T13:13:27.249Z,83.6
2022-11-19T13:14:37.372Z,82
2022-11-19T13:15:47.496Z,82.2
2022-11-19T13:16:57.621Z,81.5
2022-11-19T13:18:07.720Z,81.2
2022-11-19T13:19:17.845Z,80.8
2022-11-19T13:20:27.972Z,80.5
2022-11-19T13:21:37.090Z,79.8
2022-11-19T13:22:47.215Z,80.9
2022-11-19T13:23:57.345Z,79.6
2022-11-19T13:25:07.452Z,79.1
2022-11-19T13:26:17.572Z,78.6
2022-11-19T13:27:27.698Z,79.1
2022-11-19T13:28:37.810Z,79.2
2022-11-19T13:29:46.943Z,79.2
2022-11-19T13:30:56.092Z,78.2
2022-11-19T13:32:06.196Z,78.5
2022-11-19T13:33:15.356Z,78.8
2022-11-19T13:34:24.488Z,78.8
2022-11-19T13:35:34.598Z,78.5
2022-11-19T13:36:44.724Z,79.2
2022-11-19T13:37:54.833Z,79.8
2022-11-19T13:39:04.956Z,79.8
2022-11-19T13:40:15.065Z,80.4
2022-11-19T13:41:24.221Z,80.3
2022-11-19T13:42:34.338Z,80.8
2022-11-19T13:43:44.446Z,81.3
2022-11-19T13:44:54.571Z,82.5
2022-11-19T13:46:04.696Z,82
2022-11-19T13:47:14.800Z,82.1
2022-11-19T13:48:24.927Z,82.1
2022-11-19T13:49:35.045Z,82.2
2022-11-19T13:50:45.152Z,81.9
2022-11-19T13:51:55.281Z,81.7
2022-11-19T13:53:05.394Z,82.2
2022-11-19T13:54:15.508Z,82.3
2022-11-19T13:55:25.632Z,83.5
2022-11-19T13:57:45.997Z,83.1
2022-11-19T13:58:55.127Z,83
2022-11-19T14:00:04.267Z,83.7
2022-11-19T14:01:14.391Z,83.9
2022-11-19T14:02:24.497Z,84.1
2022-11-19T14:03:34.624Z,84.5
2022-11-19T14:04:44.747Z,84.8
2022-11-19T14:05:54.852Z,84.5
2022-11-19T14:07:04.985Z,85.2
2022-11-19T14:08:15.099Z,84.6
2022-11-19T14:09:25.205Z,85.4
2022-11-19T14:10:35.324Z,85
2022-11-19T14:11:45.453Z,85.8
2022-11-19T14:12:55.560Z,85.6
2022-11-19T14:14:05.687Z,85.9
2022-11-19T14:15:14.824Z,85.5
2022-11-19T14:16:24.950Z,86
2022-11-19T14:17:35.058Z,85.9
2022-11-19T14:18:45.179Z,86
2022-11-19T14:19:55.292Z,85.8
2022-11-19T14:21:05.419Z,85.7
2022-11-19T14:22:15.539Z,86.1
2022-11-19T14:23:24.667Z,85.2
2022-11-19T14:24:33.819Z,85.4
2022-11-19T14:25:43.918Z,85.6
2022-11-19T14:26:53.078Z,85.2
2022-11-19T14:28:02.206Z,86.7
2022-11-19T14:29:12.325Z,86.2
2022-11-19T14:30:22.449Z,85.3
2022-11-19T14:31:32.702Z,85
2022-11-19T14:32:41.842Z,85.1
2022-11-19T14:33:51.968Z,85.3
2022-11-19T14:35:02.077Z,85.1
2022-11-19T14:36:12.196Z,85.3
2022-11-19T14:37:22.308Z,86.6
2022-11-19T14:38:32.433Z,86
2022-11-19T14:39:42.558Z,85.8
2022-11-19T14:40:52.664Z,86.5
2022-11-19T14:42:02.788Z,87.1
2022-11-19T14:43:12.896Z,87.5
2022-11-19T14:44:23.022Z,87.1
2022-11-19T14:45:33.148Z,88.1
2022-11-19T14:46:43.252Z,88
2022-11-19T14:47:53.510Z,87.2
2022-11-19T14:49:03.624Z,88.3
2022-11-19T14:50:13.734Z,89
2022-11-19T14:51:23.858Z,88.9
2022-11-19T14:52:33.967Z,88.7
2022-11-19T14:53:44.094Z,89.2
2022-11-19T14:54:54.210Z,88.8
2022-11-19T14:56:04.333Z,88.4
2022-11-19T14:57:14.443Z,88.4
2022-11-19T14:58:24.569Z,88.8
2022-11-19T14:59:34.685Z,88.9
2022-11-19T15:00:44.800Z,88.8
2022-11-19T15:01:54.910Z,88.4
2022-11-19T15:03:04.060Z,89
2022-11-19T15:04:14.170Z,89.4
2022-11-19T15:05:24.293Z,89.7
2022-11-19T15:06:34.414Z,89.8
2022-11-19T15:07:44.523Z,89.2
2022-11-19T15:08:54.649Z,88.9
2022-11-19T15:11:14.882Z,89.7
2022-11-19T15:12:24.989Z,90.3
2022-11-19T15:13:35.115Z,89.7
2022-11-19T15:14:45.225Z,89.6
2022-11-19T15:15:55.356Z,90
2022-11-19T15:17:05.470Z,89.7
2022-11-19T15:18:14.605Z,89.8
2022-11-19T15:19:24.719Z,88.6
2022-11-19T15:20:34.831Z,88.7
2022-11-19T15:21:44.952Z,88.5
2022-11-19T15:22:55.084Z,89
2022-11-19T15:24:05.189Z,89.1
2022-11-19T15:25:15.315Z,88.8
2022-11-19T15:26:25.426Z,89.3
2022-11-19T15:27:35.559Z,89.3
2022-11-19T15:28:45.669Z,88.9
2022-11-19T15:29:55.794Z,89.4
2022-11-19T15:31:05.901Z,88.9
2022-11-19T15:32:16.022Z,89.3
2022-11-19T15:33:25.151Z,89.2
2022-11-19T15:34:35.274Z,89.2
2022-11-19T15:35:45.402Z,89.3
2022-11-19T15:36:55.521Z,89.3
2022-11-19T15:38:05.641Z,88.9
2022-11-19T15:39:15.750Z,88.5
2022-11-19T15:40:25.868Z,88.9
2022-11-19T15:42:46.095Z,89.1
2022-11-19T15:43:55.255Z,88.8
2022-11-19T15:45:04.390Z,88.4
2022-11-19T15:46:14.649Z,88.6
2022-11-19T15:47:23.786Z,88.5
2022-11-19T15:48:33.892Z,88.3
2022-11-19T15:49:44.019Z,88.2
2022-11-19T15:50:54.130Z,87.9
2022-11-19T15:52:04.251Z,88.1
2022-11-19T15:53:14.372Z,88.7
2022-11-19T15:54:24.499Z,88.7
2022-11-19T15:55:34.617Z,88.1
2022-11-19T15:56:44.720Z,88.3
2022-11-19T15:57:54.840Z,88
2022-11-19T15:59:04.959Z,87.9
2022-11-19T16:00:15.086Z,87.9